sensor_id;sensor_type;location;lat;lon;timestamp;P1;durP1;ratioP1;P2;durP2;ratioP2
14048;SDS011;7099;53.922;10.728;2023-11-19T00:02:20;8.23;;;5.70;;
14048;SDS011;7099;53.922;10.728;2023-11-19T00:06:26;10.60;;;5.70;;
14048;SDS011;7099;53.922;10.728;2023-11-19T00:10:32;9.20;;;5.37;;
14048;SDS011;7099;53.922;10.728;2023-11-19T00:14:38;8.27;;;5.27;;
14048;SDS011;7099;53.922;10.728;2023-11-19T00:18:44;7.80;;;5.10;;
14048;SDS011;7099;53.922;10.728;2023-11-19T00:22:49;6.30;;;5.27;;
14048;SDS011;7099;53.922;10.728;2023-11-19T00:26:58;5.90;;;4.63;;
14048;SDS011;7099;53.922;10.728;2023-11-19T00:31:04;5.17;;;4.10;;
14048;SDS011;7099;53.922;10.728;2023-11-19T00:35:10;5.73;;;4.40;;
14048;SDS011;7099;53.922;10.728;2023-11-19T00:39:19;4.33;;;3.40;;
14048;SDS011;7099;53.922;10.728;2023-11-19T00:43:26;5.50;;;4.50;;
14048;SDS011;7099;53.922;10.728;2023-11-19T00:47:32;4.53;;;3.63;;
14048;SDS011;7099;53.922;10.728;2023-11-19T00:51:38;4.70;;;3.40;;
14048;SDS011;7099;53.922;10.728;2023-11-19T00:55:43;9.80;;;3.97;;
14048;SDS011;7099;53.922;10.728;2023-11-19T00:59:51;3.93;;;3.53;;
14048;SDS011;7099;53.922;10.728;2023-11-19T01:03:57;7.03;;;3.33;;
14048;SDS011;7099;53.922;10.728;2023-11-19T01:08:04;6.70;;;3.37;;
14048;SDS011;7099;53.922;10.728;2023-11-19T01:12:11;5.47;;;3.67;;
14048;SDS011;7099;53.922;10.728;2023-11-19T01:16:17;6.50;;;3.67;;
14048;SDS011;7099;53.922;10.728;2023-11-19T01:20:23;5.80;;;3.13;;
14048;SDS011;7099;53.922;10.728;2023-11-19T01:24:29;4.60;;;3.70;;
14048;SDS011;7099;53.922;10.728;2023-11-19T01:28:36;4.20;;;3.30;;
14048;SDS011;7099;53.922;10.728;2023-11-19T01:32:55;3.90;;;3.40;;
14048;SDS011;7099;53.922;10.728;2023-11-19T01:37:01;3.37;;;3.07;;
14048;SDS011;7099;53.922;10.728;2023-11-19T01:41:07;3.80;;;3.33;;
14048;SDS011;7099;53.922;10.728;2023-11-19T01:45:21;4.03;;;3.13;;
14048;SDS011;7099;53.922;10.728;2023-11-19T01:49:33;3.53;;;2.97;;
14048;SDS011;7099;53.922;10.728;2023-11-19T01:53:39;4.23;;;3.23;;
14048;SDS011;7099;53.922;10.728;2023-11-19T01:57:45;3.40;;;3.10;;
14048;SDS011;7099;53.922;10.728;2023-11-19T02:01:54;3.70;;;3.27;;
14048;SDS011;7099;53.922;10.728;2023-11-19T02:06:03;2.83;;;2.50;;
14048;SDS011;7099;53.922;10.728;2023-11-19T02:10:10;4.00;;;2.67;;
14048;SDS011;7099;53.922;10.728;2023-11-19T02:14:19;2.90;;;2.10;;
14048;SDS011;7099;53.922;10.728;2023-11-19T02:18:30;2.40;;;2.20;;
14048;SDS011;7099;53.922;10.728;2023-11-19T02:22:36;2.13;;;2.03;;
14048;SDS011;7099;53.922;10.728;2023-11-19T02:31:15;2.30;;;2.07;;
14048;SDS011;7099;53.922;10.728;2023-11-19T02:35:21;2.37;;;2.17;;
14048;SDS011;7099;53.922;10.728;2023-11-19T02:39:27;2.47;;;2.27;;
14048;SDS011;7099;53.922;10.728;2023-11-19T02:43:33;11.20;;;1.83;;
14048;SDS011;7099;53.922;10.728;2023-11-19T02:47:43;2.57;;;2.07;;
14048;SDS011;7099;53.922;10.728;2023-11-19T02:51:52;2.03;;;1.80;;
14048;SDS011;7099;53.922;10.728;2023-11-19T02:56:01;1.70;;;1.60;;
14048;SDS011;7099;53.922;10.728;2023-11-19T03:00:20;1.40;;;1.30;;
14048;SDS011;7099;53.922;10.728;2023-11-19T03:04:37;1.80;;;1.70;;
14048;SDS011;7099;53.922;10.728;2023-11-19T03:08:44;1.70;;;1.60;;
14048;SDS011;7099;53.922;10.728;2023-11-19T03:12:50;3.20;;;1.70;;
14048;SDS011;7099;53.922;10.728;2023-11-19T03:16:56;1.60;;;1.50;;
14048;SDS011;7099;53.922;10.728;2023-11-19T03:21:01;1.23;;;1.13;;
14048;SDS011;7099;53.922;10.728;2023-11-19T03:25:08;1.30;;;1.20;;
14048;SDS011;7099;53.922;10.728;2023-11-19T03:29:14;1.70;;;1.37;;
14048;SDS011;7099;53.922;10.728;2023-11-19T03:33:19;1.53;;;1.43;;
14048;SDS011;7099;53.922;10.728;2023-11-19T03:37:26;1.40;;;1.30;;
14048;SDS011;7099;53.922;10.728;2023-11-19T03:41:31;1.20;;;1.10;;
14048;SDS011;7099;53.922;10.728;2023-11-19T03:45:40;1.33;;;1.23;;
14048;SDS011;7099;53.922;10.728;2023-11-19T03:49:49;1.60;;;1.50;;
14048;SDS011;7099;53.922;10.728;2023-11-19T03:53:55;1.60;;;1.50;;
14048;SDS011;7099;53.922;10.728;2023-11-19T03:58:01;1.53;;;1.00;;
14048;SDS011;7099;53.922;10.728;2023-11-19T04:02:06;1.20;;;1.10;;
14048;SDS011;7099;53.922;10.728;2023-11-19T04:06:12;1.23;;;1.13;;
14048;SDS011;7099;53.922;10.728;2023-11-19T04:10:18;1.30;;;1.20;;
14048;SDS011;7099;53.922;10.728;2023-11-19T04:14:23;1.10;;;1.10;;
14048;SDS011;7099;53.922;10.728;2023-11-19T04:18:29;1.20;;;1.20;;
14048;SDS011;7099;53.922;10.728;2023-11-19T04:22:36;0.90;;;0.90;;
14048;SDS011;7099;53.922;10.728;2023-11-19T04:26:42;1.50;;;1.40;;
14048;SDS011;7099;53.922;10.728;2023-11-19T04:30:49;1.30;;;1.20;;
14048;SDS011;7099;53.922;10.728;2023-11-19T04:34:55;1.30;;;1.20;;
14048;SDS011;7099;53.922;10.728;2023-11-19T04:39:01;1.30;;;1.20;;
14048;SDS011;7099;53.922;10.728;2023-11-19T04:43:07;2.40;;;1.53;;
14048;SDS011;7099;53.922;10.728;2023-11-19T04:47:12;1.17;;;1.10;;
14048;SDS011;7099;53.922;10.728;2023-11-19T04:51:19;2.50;;;1.00;;
14048;SDS011;7099;53.922;10.728;2023-11-19T04:55:24;1.07;;;1.07;;
14048;SDS011;7099;53.922;10.728;2023-11-19T04:59:30;1.00;;;1.00;;
14048;SDS011;7099;53.922;10.728;2023-11-19T05:03:36;0.83;;;0.83;;
14048;SDS011;7099;53.922;10.728;2023-11-19T05:07:41;0.83;;;0.83;;
14048;SDS011;7099;53.922;10.728;2023-11-19T05:11:47;1.23;;;1.03;;
14048;SDS011;7099;53.922;10.728;2023-11-19T05:15:56;0.93;;;0.90;;
14048;SDS011;7099;53.922;10.728;2023-11-19T05:20:01;1.13;;;1.03;;
14048;SDS011;7099;53.922;10.728;2023-11-19T05:24:08;1.20;;;1.10;;
14048;SDS011;7099;53.922;10.728;2023-11-19T05:28:13;0.90;;;0.90;;
14048;SDS011;7099;53.922;10.728;2023-11-19T05:32:19;1.03;;;1.00;;
14048;SDS011;7099;53.922;10.728;2023-11-19T05:36:25;1.00;;;1.00;;
14048;SDS011;7099;53.922;10.728;2023-11-19T05:40:30;0.90;;;0.90;;
14048;SDS011;7099;53.922;10.728;2023-11-19T05:44:36;1.33;;;1.00;;
14048;SDS011;7099;53.922;10.728;2023-11-19T05:48:45;0.90;;;0.90;;
14048;SDS011;7099;53.922;10.728;2023-11-19T05:52:51;1.20;;;1.10;;
14048;SDS011;7099;53.922;10.728;2023-11-19T05:56:58;2.50;;;1.00;;
14048;SDS011;7099;53.922;10.728;2023-11-19T06:01:04;1.10;;;1.10;;
14048;SDS011;7099;53.922;10.728;2023-11-19T06:05:13;1.30;;;1.20;;
14048;SDS011;7099;53.922;10.728;2023-11-19T06:09:18;1.50;;;1.40;;
14048;SDS011;7099;53.922;10.728;2023-11-19T06:13:24;3.83;;;1.80;;
14048;SDS011;7099;53.922;10.728;2023-11-19T06:17:30;7.73;;;1.47;;
14048;SDS011;7099;53.922;10.728;2023-11-19T06:21:36;1.90;;;1.57;;
14048;SDS011;7099;53.922;10.728;2023-11-19T06:25:42;1.93;;;1.73;;
14048;SDS011;7099;53.922;10.728;2023-11-19T06:29:47;2.50;;;1.60;;
14048;SDS011;7099;53.922;10.728;2023-11-19T06:33:53;2.10;;;1.90;;
14048;SDS011;7099;53.922;10.728;2023-11-19T06:37:59;5.47;;;2.37;;
14048;SDS011;7099;53.922;10.728;2023-11-19T06:42:05;5.27;;;2.60;;
14048;SDS011;7099;53.922;10.728;2023-11-19T06:46:15;6.27;;;2.87;;
14048;SDS011;7099;53.922;10.728;2023-11-19T06:50:22;7.93;;;3.77;;
14048;SDS011;7099;53.922;10.728;2023-11-19T06:54:29;9.07;;;3.17;;
14048;SDS011;7099;53.922;10.728;2023-11-19T06:58:37;6.60;;;3.80;;
14048;SDS011;7099;53.922;10.728;2023-11-19T07:02:43;12.30;;;3.37;;
14048;SDS011;7099;53.922;10.728;2023-11-19T07:06:49;7.90;;;3.87;;
14048;SDS011;7099;53.922;10.728;2023-11-19T07:10:57;12.73;;;4.00;;
14048;SDS011;7099;53.922;10.728;2023-11-19T07:15:02;16.37;;;4.17;;
14048;SDS011;7099;53.922;10.728;2023-11-19T07:19:09;16.97;;;5.27;;
14048;SDS011;7099;53.922;10.728;2023-11-19T07:23:15;20.17;;;5.27;;
14048;SDS011;7099;53.922;10.728;2023-11-19T07:27:23;13.40;;;6.00;;
14048;SDS011;7099;53.922;10.728;2023-11-19T07:35:35;21.20;;;6.80;;
14048;SDS011;7099;53.922;10.728;2023-11-19T07:39:40;23.10;;;6.73;;
14048;SDS011;7099;53.922;10.728;2023-11-19T07:43:46;27.67;;;7.30;;
14048;SDS011;7099;53.922;10.728;2023-11-19T07:47:52;29.73;;;7.73;;
14048;SDS011;7099;53.922;10.728;2023-11-19T07:51:57;26.00;;;7.97;;
14048;SDS011;7099;53.922;10.728;2023-11-19T07:56:03;39.80;;;7.73;;
14048;SDS011;7099;53.922;10.728;2023-11-19T08:00:10;28.60;;;9.27;;
14048;SDS011;7099;53.922;10.728;2023-11-19T08:04:17;44.57;;;9.53;;
14048;SDS011;7099;53.922;10.728;2023-11-19T08:08:23;53.67;;;9.00;;
14048;SDS011;7099;53.922;10.728;2023-11-19T08:24:49;35.43;;;10.63;;
14048;SDS011;7099;53.922;10.728;2023-11-19T08:33:00;33.03;;;10.40;;
14048;SDS011;7099;53.922;10.728;2023-11-19T08:37:08;34.40;;;10.80;;
14048;SDS011;7099;53.922;10.728;2023-11-19T08:41:13;42.53;;;10.40;;
14048;SDS011;7099;53.922;10.728;2023-11-19T08:45:19;33.57;;;9.77;;
14048;SDS011;7099;53.922;10.728;2023-11-19T08:49:25;31.40;;;9.17;;
14048;SDS011;7099;53.922;10.728;2023-11-19T08:53:32;30.87;;;9.03;;
14048;SDS011;7099;53.922;10.728;2023-11-19T09:01:43;35.20;;;8.90;;
14048;SDS011;7099;53.922;10.728;2023-11-19T09:05:49;44.40;;;8.17;;
14048;SDS011;7099;53.922;10.728;2023-11-19T09:14:01;40.50;;;6.20;;
14048;SDS011;7099;53.922;10.728;2023-11-19T09:18:06;40.00;;;5.90;;
14048;SDS011;7099;53.922;10.728;2023-11-19T09:22:12;36.70;;;5.40;;
14048;SDS011;7099;53.922;10.728;2023-11-19T09:26:17;41.83;;;6.83;;
14048;SDS011;7099;53.922;10.728;2023-11-19T09:34:29;36.73;;;5.20;;
14048;SDS011;7099;53.922;10.728;2023-11-19T09:38:35;28.23;;;4.83;;
14048;SDS011;7099;53.922;10.728;2023-11-19T09:55:03;35.23;;;4.93;;
14048;SDS011;7099;53.922;10.728;2023-11-19T09:59:08;32.47;;;4.33;;
14048;SDS011;7099;53.922;10.728;2023-11-19T10:03:17;41.07;;;4.40;;
14048;SDS011;7099;53.922;10.728;2023-11-19T10:11:31;33.33;;;4.37;;
14048;SDS011;7099;53.922;10.728;2023-11-19T10:15:37;38.77;;;5.13;;
14048;SDS011;7099;53.922;10.728;2023-11-19T10:19:43;34.93;;;4.77;;
14048;SDS011;7099;53.922;10.728;2023-11-19T10:28:01;35.20;;;4.10;;
14048;SDS011;7099;53.922;10.728;2023-11-19T10:32:08;27.23;;;3.80;;
14048;SDS011;7099;53.922;10.728;2023-11-19T10:36:37;34.37;;;4.63;;
14048;SDS011;7099;53.922;10.728;2023-11-19T10:40:47;22.43;;;3.80;;
14048;SDS011;7099;53.922;10.728;2023-11-19T10:44:54;32.67;;;4.10;;
14048;SDS011;7099;53.922;10.728;2023-11-19T10:48:59;28.97;;;5.10;;
14048;SDS011;7099;53.922;10.728;2023-11-19T10:53:06;32.23;;;4.43;;
14048;SDS011;7099;53.922;10.728;2023-11-19T10:57:18;28.97;;;5.43;;
14048;SDS011;7099;53.922;10.728;2023-11-19T11:01:27;26.10;;;4.60;;
14048;SDS011;7099;53.922;10.728;2023-11-19T11:05:53;23.07;;;4.70;;
14048;SDS011;7099;53.922;10.728;2023-11-19T11:09:59;20.23;;;4.47;;
14048;SDS011;7099;53.922;10.728;2023-11-19T11:14:07;19.87;;;4.00;;
14048;SDS011;7099;53.922;10.728;2023-11-19T11:18:19;17.97;;;3.67;;
14048;SDS011;7099;53.922;10.728;2023-11-19T11:22:24;29.23;;;4.53;;
14048;SDS011;7099;53.922;10.728;2023-11-19T11:36:34;16.70;;;4.10;;
14048;SDS011;7099;53.922;10.728;2023-11-19T11:41:21;17.73;;;3.10;;
14048;SDS011;7099;53.922;10.728;2023-11-19T11:45:37;23.47;;;3.40;;
14048;SDS011;7099;53.922;10.728;2023-11-19T11:49:48;19.23;;;3.90;;
14048;SDS011;7099;53.922;10.728;2023-11-19T11:53:54;30.17;;;4.23;;
14048;SDS011;7099;53.922;10.728;2023-11-19T11:58:03;27.63;;;3.97;;
14048;SDS011;7099;53.922;10.728;2023-11-19T12:02:11;24.30;;;4.17;;
14048;SDS011;7099;53.922;10.728;2023-11-19T12:06:20;31.17;;;4.67;;
14048;SDS011;7099;53.922;10.728;2023-11-19T12:10:29;15.63;;;3.47;;
14048;SDS011;7099;53.922;10.728;2023-11-19T12:19:04;21.97;;;4.10;;
14048;SDS011;7099;53.922;10.728;2023-11-19T12:23:10;17.13;;;3.43;;
14048;SDS011;7099;53.922;10.728;2023-11-19T12:27:17;20.27;;;3.43;;
14048;SDS011;7099;53.922;10.728;2023-11-19T12:31:22;25.27;;;4.00;;
14048;SDS011;7099;53.922;10.728;2023-11-19T12:35:28;22.93;;;4.00;;
14048;SDS011;7099;53.922;10.728;2023-11-19T12:39:34;17.63;;;3.63;;
14048;SDS011;7099;53.922;10.728;2023-11-19T12:43:39;25.80;;;4.20;;
14048;SDS011;7099;53.922;10.728;2023-11-19T12:47:48;32.97;;;5.60;;
14048;SDS011;7099;53.922;10.728;2023-11-19T12:51:54;25.93;;;4.37;;
14048;SDS011;7099;53.922;10.728;2023-11-19T12:56:07;26.40;;;3.77;;
14048;SDS011;7099;53.922;10.728;2023-11-19T13:00:20;24.10;;;4.60;;
14048;SDS011;7099;53.922;10.728;2023-11-19T13:04:28;24.40;;;4.80;;
14048;SDS011;7099;53.922;10.728;2023-11-19T13:08:38;24.30;;;4.20;;
14048;SDS011;7099;53.922;10.728;2023-11-19T13:12:59;18.10;;;3.50;;
14048;SDS011;7099;53.922;10.728;2023-11-19T13:17:14;23.90;;;4.27;;
14048;SDS011;7099;53.922;10.728;2023-11-19T13:21:20;26.77;;;4.23;;
14048;SDS011;7099;53.922;10.728;2023-11-19T13:25:26;28.87;;;3.87;;
14048;SDS011;7099;53.922;10.728;2023-11-19T13:29:32;27.60;;;4.90;;
14048;SDS011;7099;53.922;10.728;2023-11-19T13:33:40;21.33;;;4.00;;
14048;SDS011;7099;53.922;10.728;2023-11-19T13:37:47;17.73;;;4.00;;
14048;SDS011;7099;53.922;10.728;2023-11-19T13:41:52;27.90;;;4.40;;
14048;SDS011;7099;53.922;10.728;2023-11-19T13:46:17;26.37;;;4.77;;
14048;SDS011;7099;53.922;10.728;2023-11-19T13:50:22;29.73;;;6.10;;
14048;SDS011;7099;53.922;10.728;2023-11-19T13:58:33;32.33;;;5.60;;
14048;SDS011;7099;53.922;10.728;2023-11-19T14:02:40;34.67;;;4.97;;
14048;SDS011;7099;53.922;10.728;2023-11-19T14:06:46;39.03;;;5.80;;
14048;SDS011;7099;53.922;10.728;2023-11-19T14:10:52;28.77;;;5.70;;
14048;SDS011;7099;53.922;10.728;2023-11-19T14:15:00;27.87;;;4.57;;
14048;SDS011;7099;53.922;10.728;2023-11-19T14:19:06;34.57;;;5.07;;
14048;SDS011;7099;53.922;10.728;2023-11-19T14:23:11;22.93;;;4.70;;
14048;SDS011;7099;53.922;10.728;2023-11-19T14:27:17;37.13;;;5.23;;
14048;SDS011;7099;53.922;10.728;2023-11-19T14:31:23;38.60;;;5.77;;
14048;SDS011;7099;53.922;10.728;2023-11-19T14:35:33;26.25;;;5.70;;
14048;SDS011;7099;53.922;10.728;2023-11-19T14:39:38;37.57;;;5.70;;
14048;SDS011;7099;53.922;10.728;2023-11-19T14:43:44;32.47;;;5.70;;
14048;SDS011;7099;53.922;10.728;2023-11-19T14:47:50;36.57;;;5.10;;
14048;SDS011;7099;53.922;10.728;2023-11-19T14:51:57;30.77;;;4.60;;
14048;SDS011;7099;53.922;10.728;2023-11-19T14:56:21;21.67;;;3.97;;
14048;SDS011;7099;53.922;10.728;2023-11-19T15:00:27;23.70;;;3.67;;
14048;SDS011;7099;53.922;10.728;2023-11-19T15:04:33;20.43;;;2.87;;
14048;SDS011;7099;53.922;10.728;2023-11-19T15:08:39;19.30;;;3.73;;
14048;SDS011;7099;53.922;10.728;2023-11-19T15:12:45;22.93;;;4.27;;
14048;SDS011;7099;53.922;10.728;2023-11-19T15:16:50;21.73;;;3.73;;
14048;SDS011;7099;53.922;10.728;2023-11-19T15:20:56;27.67;;;4.30;;
14048;SDS011;7099;53.922;10.728;2023-11-19T15:25:02;19.20;;;4.00;;
14048;SDS011;7099;53.922;10.728;2023-11-19T15:29:08;27.83;;;4.60;;
14048;SDS011;7099;53.922;10.728;2023-11-19T15:33:14;24.60;;;4.30;;
14048;SDS011;7099;53.922;10.728;2023-11-19T15:37:20;30.30;;;5.60;;
14048;SDS011;7099;53.922;10.728;2023-11-19T15:41:25;27.77;;;4.00;;
14048;SDS011;7099;53.922;10.728;2023-11-19T15:45:32;23.17;;;4.20;;
14048;SDS011;7099;53.922;10.728;2023-11-19T15:49:42;17.70;;;3.40;;
14048;SDS011;7099;53.922;10.728;2023-11-19T15:53:50;25.20;;;4.10;;
14048;SDS011;7099;53.922;10.728;2023-11-19T15:57:55;16.80;;;3.35;;
14048;SDS011;7099;53.922;10.728;2023-11-19T16:02:01;16.67;;;3.77;;
14048;SDS011;7099;53.922;10.728;2023-11-19T16:06:07;23.80;;;3.60;;
14048;SDS011;7099;53.922;10.728;2023-11-19T16:10:15;29.30;;;4.20;;
14048;SDS011;7099;53.922;10.728;2023-11-19T16:14:28;25.13;;;4.00;;
14048;SDS011;7099;53.922;10.728;2023-11-19T16:18:34;21.73;;;3.60;;
14048;SDS011;7099;53.922;10.728;2023-11-19T16:22:40;29.70;;;4.85;;
14048;SDS011;7099;53.922;10.728;2023-11-19T16:26:49;20.70;;;4.60;;
14048;SDS011;7099;53.922;10.728;2023-11-19T16:30:55;18.80;;;3.40;;
14048;SDS011;7099;53.922;10.728;2023-11-19T16:35:01;18.30;;;4.10;;
14048;SDS011;7099;53.922;10.728;2023-11-19T16:39:07;20.70;;;4.00;;
14048;SDS011;7099;53.922;10.728;2023-11-19T16:43:17;30.75;;;4.45;;
14048;SDS011;7099;53.922;10.728;2023-11-19T16:47:23;20.90;;;3.40;;
14048;SDS011;7099;53.922;10.728;2023-11-19T16:51:29;19.63;;;3.53;;
14048;SDS011;7099;53.922;10.728;2023-11-19T16:55:34;27.13;;;4.03;;
14048;SDS011;7099;53.922;10.728;2023-11-19T16:59:40;13.10;;;3.10;;
14048;SDS011;7099;53.922;10.728;2023-11-19T17:03:46;16.67;;;3.53;;
14048;SDS011;7099;53.922;10.728;2023-11-19T17:07:52;23.57;;;3.90;;
14048;SDS011;7099;53.922;10.728;2023-11-19T17:11:58;24.10;;;4.03;;
14048;SDS011;7099;53.922;10.728;2023-11-19T17:16:04;16.90;;;3.50;;
14048;SDS011;7099;53.922;10.728;2023-11-19T17:20:12;21.63;;;4.50;;
14048;SDS011;7099;53.922;10.728;2023-11-19T17:24:18;21.70;;;3.50;;
14048;SDS011;7099;53.922;10.728;2023-11-19T17:28:24;14.00;;;3.40;;
14048;SDS011;7099;53.922;10.728;2023-11-19T17:32:30;17.20;;;3.20;;
14048;SDS011;7099;53.922;10.728;2023-11-19T17:36:37;12.13;;;3.13;;
14048;SDS011;7099;53.922;10.728;2023-11-19T17:40:42;17.50;;;3.43;;
14048;SDS011;7099;53.922;10.728;2023-11-19T17:44:48;19.23;;;3.30;;
14048;SDS011;7099;53.922;10.728;2023-11-19T17:48:54;11.73;;;3.50;;
14048;SDS011;7099;53.922;10.728;2023-11-19T17:53:00;21.30;;;3.60;;
14048;SDS011;7099;53.922;10.728;2023-11-19T17:57:06;12.30;;;3.57;;
14048;SDS011;7099;53.922;10.728;2023-11-19T18:01:12;12.67;;;3.73;;
14048;SDS011;7099;53.922;10.728;2023-11-19T18:05:17;11.63;;;3.63;;
14048;SDS011;7099;53.922;10.728;2023-11-19T18:09:25;12.37;;;3.63;;
14048;SDS011;7099;53.922;10.728;2023-11-19T18:13:31;16.93;;;3.67;;
14048;SDS011;7099;53.922;10.728;2023-11-19T18:17:38;14.33;;;3.70;;
14048;SDS011;7099;53.922;10.728;2023-11-19T18:21:47;18.40;;;3.40;;
14048;SDS011;7099;53.922;10.728;2023-11-19T18:25:53;25.70;;;5.10;;
14048;SDS011;7099;53.922;10.728;2023-11-19T18:29:59;12.03;;;3.53;;
14048;SDS011;7099;53.922;10.728;2023-11-19T18:34:05;19.77;;;3.77;;
14048;SDS011;7099;53.922;10.728;2023-11-19T18:38:11;15.43;;;3.67;;
14048;SDS011;7099;53.922;10.728;2023-11-19T18:42:16;22.70;;;2.93;;
14048;SDS011;7099;53.922;10.728;2023-11-19T18:46:22;17.70;;;3.30;;
14048;SDS011;7099;53.922;10.728;2023-11-19T18:50:28;18.00;;;3.55;;
14048;SDS011;7099;53.922;10.728;2023-11-19T18:54:33;29.43;;;4.17;;
14048;SDS011;7099;53.922;10.728;2023-11-19T18:58:40;15.00;;;3.87;;
14048;SDS011;7099;53.922;10.728;2023-11-19T19:02:46;20.87;;;3.67;;
14048;SDS011;7099;53.922;10.728;2023-11-19T19:06:56;20.53;;;3.93;;
14048;SDS011;7099;53.922;10.728;2023-11-19T19:11:02;16.30;;;4.00;;
14048;SDS011;7099;53.922;10.728;2023-11-19T19:15:09;24.00;;;4.07;;
14048;SDS011;7099;53.922;10.728;2023-11-19T19:19:21;28.07;;;4.17;;
14048;SDS011;7099;53.922;10.728;2023-11-19T19:23:27;17.80;;;3.87;;
14048;SDS011;7099;53.922;10.728;2023-11-19T19:31:38;28.67;;;4.23;;
14048;SDS011;7099;53.922;10.728;2023-11-19T19:35:44;18.57;;;3.50;;
14048;SDS011;7099;53.922;10.728;2023-11-19T19:56:16;19.77;;;3.37;;
14048;SDS011;7099;53.922;10.728;2023-11-19T20:00:22;18.95;;;3.05;;
14048;SDS011;7099;53.922;10.728;2023-11-19T20:04:28;15.20;;;3.10;;
14048;SDS011;7099;53.922;10.728;2023-11-19T20:08:34;12.87;;;2.80;;
14048;SDS011;7099;53.922;10.728;2023-11-19T20:12:40;23.27;;;2.80;;
14048;SDS011;7099;53.922;10.728;2023-11-19T20:16:46;20.33;;;3.30;;
14048;SDS011;7099;53.922;10.728;2023-11-19T20:21:13;23.45;;;2.75;;
14048;SDS011;7099;53.922;10.728;2023-11-19T20:25:18;15.60;;;2.90;;
14048;SDS011;7099;53.922;10.728;2023-11-19T20:29:24;12.50;;;3.00;;
14048;SDS011;7099;53.922;10.728;2023-11-19T20:33:31;21.13;;;3.47;;
14048;SDS011;7099;53.922;10.728;2023-11-19T20:37:37;16.47;;;3.57;;
14048;SDS011;7099;53.922;10.728;2023-11-19T20:41:43;19.43;;;3.20;;
14048;SDS011;7099;53.922;10.728;2023-11-19T20:45:48;15.30;;;3.10;;
14048;SDS011;7099;53.922;10.728;2023-11-19T20:49:54;14.30;;;3.63;;
14048;SDS011;7099;53.922;10.728;2023-11-19T20:53:59;17.65;;;3.50;;
14048;SDS011;7099;53.922;10.728;2023-11-19T20:58:05;12.43;;;4.43;;
14048;SDS011;7099;53.922;10.728;2023-11-19T21:02:13;18.77;;;4.27;;
14048;SDS011;7099;53.922;10.728;2023-11-19T21:06:20;17.00;;;3.50;;
14048;SDS011;7099;53.922;10.728;2023-11-19T21:10:26;17.53;;;3.80;;
14048;SDS011;7099;53.922;10.728;2023-11-19T21:14:32;19.83;;;4.23;;
14048;SDS011;7099;53.922;10.728;2023-11-19T21:18:38;17.90;;;4.00;;
14048;SDS011;7099;53.922;10.728;2023-11-19T21:22:43;16.63;;;3.63;;
14048;SDS011;7099;53.922;10.728;2023-11-19T21:26:49;21.13;;;4.17;;
14048;SDS011;7099;53.922;10.728;2023-11-19T21:30:55;27.40;;;4.30;;
14048;SDS011;7099;53.922;10.728;2023-11-19T21:35:05;19.87;;;4.30;;
14048;SDS011;7099;53.922;10.728;2023-11-19T21:39:10;15.90;;;3.93;;
14048;SDS011;7099;53.922;10.728;2023-11-19T21:43:17;16.50;;;4.20;;
14048;SDS011;7099;53.922;10.728;2023-11-19T21:47:23;28.80;;;4.97;;
14048;SDS011;7099;53.922;10.728;2023-11-19T21:51:28;24.10;;;5.50;;
14048;SDS011;7099;53.922;10.728;2023-11-19T21:55:34;24.80;;;5.50;;
14048;SDS011;7099;53.922;10.728;2023-11-19T21:59:39;31.27;;;6.80;;
14048;SDS011;7099;53.922;10.728;2023-11-19T22:03:45;26.83;;;6.10;;
14048;SDS011;7099;53.922;10.728;2023-11-19T22:07:50;31.03;;;6.17;;
14048;SDS011;7099;53.922;10.728;2023-11-19T22:11:56;19.80;;;5.93;;
14048;SDS011;7099;53.922;10.728;2023-11-19T22:16:01;32.57;;;6.80;;
14048;SDS011;7099;53.922;10.728;2023-11-19T22:20:07;21.70;;;6.57;;
14048;SDS011;7099;53.922;10.728;2023-11-19T22:24:18;30.70;;;7.03;;
14048;SDS011;7099;53.922;10.728;2023-11-19T22:28:23;34.13;;;5.93;;
14048;SDS011;7099;53.922;10.728;2023-11-19T22:32:29;25.87;;;6.80;;
14048;SDS011;7099;53.922;10.728;2023-11-19T22:36:37;22.60;;;5.70;;
14048;SDS011;7099;53.922;10.728;2023-11-19T22:40:42;28.67;;;7.77;;
14048;SDS011;7099;53.922;10.728;2023-11-19T22:44:48;30.80;;;5.70;;
14048;SDS011;7099;53.922;10.728;2023-11-19T22:48:53;28.30;;;6.40;;
14048;SDS011;7099;53.922;10.728;2023-11-19T22:52:59;21.30;;;5.10;;
14048;SDS011;7099;53.922;10.728;2023-11-19T22:57:05;22.23;;;4.90;;
14048;SDS011;7099;53.922;10.728;2023-11-19T23:01:11;28.87;;;5.80;;
14048;SDS011;7099;53.922;10.728;2023-11-19T23:05:17;22.50;;;5.10;;
14048;SDS011;7099;53.922;10.728;2023-11-19T23:09:22;21.20;;;5.27;;
14048;SDS011;7099;53.922;10.728;2023-11-19T23:13:28;32.40;;;5.80;;
14048;SDS011;7099;53.922;10.728;2023-11-19T23:17:36;22.60;;;4.90;;
14048;SDS011;7099;53.922;10.728;2023-11-19T23:29:54;15.50;;;4.83;;
14048;SDS011;7099;53.922;10.728;2023-11-19T23:34:00;23.13;;;4.70;;
14048;SDS011;7099;53.922;10.728;2023-11-19T23:38:06;15.00;;;4.27;;
14048;SDS011;7099;53.922;10.728;2023-11-19T23:42:12;20.00;;;4.50;;
14048;SDS011;7099;53.922;10.728;2023-11-19T23:46:18;19.40;;;4.70;;
14048;SDS011;7099;53.922;10.728;2023-11-19T23:50:24;26.77;;;4.67;;
14048;SDS011;7099;53.922;10.728;2023-11-19T23:54:30;26.25;;;4.20;;
